sensor_id;sensor_type;location;lat;lon;timestamp;P1;durP1;ratioP1;P2;durP2;ratioP2
61291;SDS011;47165;42.664;23.368;2022-09-09T00:06:42;9.48;;;6.55;;
61291;SDS011;47165;42.664;23.368;2022-09-09T00:09:12;8.40;;;5.50;;
61291;SDS011;47165;42.664;23.368;2022-09-09T00:11:43;8.98;;;6.47;;
61291;SDS011;47165;42.664;23.368;2022-09-09T00:14:15;10.48;;;6.53;;
61291;SDS011;47165;42.664;23.368;2022-09-09T00:16:50;10.70;;;6.00;;
61291;SDS011;47165;42.664;23.368;2022-09-09T00:19:46;9.38;;;6.55;;
61291;SDS011;47165;42.664;23.368;2022-09-09T00:22:24;8.15;;;5.78;;
61291;SDS011;47165;42.664;23.368;2022-09-09T00:24:53;8.10;;;5.95;;
61291;SDS011;47165;42.664;23.368;2022-09-09T00:32:36;7.97;;;5.90;;
61291;SDS011;47165;42.664;23.368;2022-09-09T00:35:21;10.40;;;6.70;;
61291;SDS011;47165;42.664;23.368;2022-09-09T00:37:50;8.77;;;5.95;;
61291;SDS011;47165;42.664;23.368;2022-09-09T00:40:24;12.30;;;7.13;;
61291;SDS011;47165;42.664;23.368;2022-09-09T00:46:10;9.02;;;5.95;;
61291;SDS011;47165;42.664;23.368;2022-09-09T00:48:51;8.32;;;6.15;;
61291;SDS011;47165;42.664;23.368;2022-09-09T00:59:52;9.80;;;6.22;;
61291;SDS011;47165;42.664;23.368;2022-09-09T01:02:39;8.40;;;6.20;;
61291;SDS011;47165;42.664;23.368;2022-09-09T01:08:05;7.10;;;5.65;;
61291;SDS011;47165;42.664;23.368;2022-09-09T01:10:50;8.68;;;6.03;;
61291;SDS011;47165;42.664;23.368;2022-09-09T01:13:22;8.97;;;6.33;;
61291;SDS011;47165;42.664;23.368;2022-09-09T01:15:51;9.95;;;6.20;;
61291;SDS011;47165;42.664;23.368;2022-09-09T01:18:19;8.18;;;6.32;;
61291;SDS011;47165;42.664;23.368;2022-09-09T01:26:30;9.55;;;5.85;;
61291;SDS011;47165;42.664;23.368;2022-09-09T01:28:57;8.20;;;5.68;;
61291;SDS011;47165;42.664;23.368;2022-09-09T01:31:24;9.02;;;5.13;;
61291;SDS011;47165;42.664;23.368;2022-09-09T01:33:53;9.77;;;6.43;;
61291;SDS011;47165;42.664;23.368;2022-09-09T01:36:26;9.50;;;6.55;;
61291;SDS011;47165;42.664;23.368;2022-09-09T01:38:58;9.20;;;5.93;;
61291;SDS011;47165;42.664;23.368;2022-09-09T01:41:24;8.95;;;6.63;;
61291;SDS011;47165;42.664;23.368;2022-09-09T01:43:49;8.35;;;6.25;;
61291;SDS011;47165;42.664;23.368;2022-09-09T01:46:17;9.20;;;6.22;;
61291;SDS011;47165;42.664;23.368;2022-09-09T01:48:45;10.50;;;6.50;;
61291;SDS011;47165;42.664;23.368;2022-09-09T01:51:11;10.13;;;5.90;;
61291;SDS011;47165;42.664;23.368;2022-09-09T01:53:36;9.38;;;6.30;;
61291;SDS011;47165;42.664;23.368;2022-09-09T01:56:09;7.85;;;5.57;;
61291;SDS011;47165;42.664;23.368;2022-09-09T01:58:47;9.25;;;5.90;;
61291;SDS011;47165;42.664;23.368;2022-09-09T02:01:39;8.48;;;5.15;;
61291;SDS011;47165;42.664;23.368;2022-09-09T02:04:14;7.78;;;6.28;;
61291;SDS011;47165;42.664;23.368;2022-09-09T02:06:41;7.38;;;5.80;;
61291;SDS011;47165;42.664;23.368;2022-09-09T02:09:11;10.43;;;5.88;;
61291;SDS011;47165;42.664;23.368;2022-09-09T02:11:38;12.70;;;7.13;;
61291;SDS011;47165;42.664;23.368;2022-09-09T02:14:08;9.63;;;7.13;;
61291;SDS011;47165;42.664;23.368;2022-09-09T02:21:42;8.07;;;6.28;;
61291;SDS011;47165;42.664;23.368;2022-09-09T02:24:10;10.05;;;5.60;;
61291;SDS011;47165;42.664;23.368;2022-09-09T02:26:40;8.20;;;6.07;;
61291;SDS011;47165;42.664;23.368;2022-09-09T02:29:21;7.93;;;5.60;;
61291;SDS011;47165;42.664;23.368;2022-09-09T02:31:53;6.97;;;5.80;;
61291;SDS011;47165;42.664;23.368;2022-09-09T02:34:23;8.75;;;5.88;;
61291;SDS011;47165;42.664;23.368;2022-09-09T02:36:53;9.15;;;6.15;;
61291;SDS011;47165;42.664;23.368;2022-09-09T02:39:20;10.48;;;5.72;;
61291;SDS011;47165;42.664;23.368;2022-09-09T02:41:45;7.78;;;5.70;;
61291;SDS011;47165;42.664;23.368;2022-09-09T02:44:13;10.93;;;7.35;;
61291;SDS011;47165;42.664;23.368;2022-09-09T02:52:15;7.78;;;5.03;;
61291;SDS011;47165;42.664;23.368;2022-09-09T02:54:47;9.20;;;6.00;;
61291;SDS011;47165;42.664;23.368;2022-09-09T02:57:20;8.25;;;6.32;;
61291;SDS011;47165;42.664;23.368;2022-09-09T02:59:48;9.85;;;6.03;;
61291;SDS011;47165;42.664;23.368;2022-09-09T03:02:15;9.20;;;6.35;;
61291;SDS011;47165;42.664;23.368;2022-09-09T03:04:40;11.05;;;5.93;;
61291;SDS011;47165;42.664;23.368;2022-09-09T03:07:09;8.57;;;5.80;;
61291;SDS011;47165;42.664;23.368;2022-09-09T03:09:35;13.25;;;6.32;;
61291;SDS011;47165;42.664;23.368;2022-09-09T03:12:00;11.23;;;6.78;;
61291;SDS011;47165;42.664;23.368;2022-09-09T03:14:26;8.45;;;6.40;;
61291;SDS011;47165;42.664;23.368;2022-09-09T03:16:52;10.30;;;6.18;;
61291;SDS011;47165;42.664;23.368;2022-09-09T03:19:18;9.07;;;6.00;;
61291;SDS011;47165;42.664;23.368;2022-09-09T03:21:45;6.93;;;5.68;;
61291;SDS011;47165;42.664;23.368;2022-09-09T03:24:11;12.30;;;5.70;;
61291;SDS011;47165;42.664;23.368;2022-09-09T03:26:36;9.13;;;6.13;;
61291;SDS011;47165;42.664;23.368;2022-09-09T03:29:03;8.35;;;6.45;;
61291;SDS011;47165;42.664;23.368;2022-09-09T03:31:32;10.40;;;6.40;;
61291;SDS011;47165;42.664;23.368;2022-09-09T03:33:59;9.18;;;5.63;;
61291;SDS011;47165;42.664;23.368;2022-09-09T03:36:25;10.60;;;6.20;;
61291;SDS011;47165;42.664;23.368;2022-09-09T03:38:52;11.93;;;6.50;;
61291;SDS011;47165;42.664;23.368;2022-09-09T03:41:18;11.43;;;6.93;;
61291;SDS011;47165;42.664;23.368;2022-09-09T03:43:44;9.73;;;6.55;;
61291;SDS011;47165;42.664;23.368;2022-09-09T03:46:09;12.45;;;6.38;;
61291;SDS011;47165;42.664;23.368;2022-09-09T03:48:35;10.57;;;5.93;;
61291;SDS011;47165;42.664;23.368;2022-09-09T03:51:00;9.40;;;6.78;;
61291;SDS011;47165;42.664;23.368;2022-09-09T03:53:26;10.45;;;5.95;;
61291;SDS011;47165;42.664;23.368;2022-09-09T03:55:53;8.07;;;5.90;;
61291;SDS011;47165;42.664;23.368;2022-09-09T03:58:20;7.70;;;5.75;;
61291;SDS011;47165;42.664;23.368;2022-09-09T04:00:53;14.65;;;7.95;;
61291;SDS011;47165;42.664;23.368;2022-09-09T04:03:19;11.45;;;7.10;;
61291;SDS011;47165;42.664;23.368;2022-09-09T04:05:45;12.32;;;8.20;;
61291;SDS011;47165;42.664;23.368;2022-09-09T04:08:14;13.35;;;8.15;;
61291;SDS011;47165;42.664;23.368;2022-09-09T04:10:39;10.93;;;7.47;;
61291;SDS011;47165;42.664;23.368;2022-09-09T04:13:05;12.05;;;6.90;;
61291;SDS011;47165;42.664;23.368;2022-09-09T04:15:31;11.05;;;6.93;;
61291;SDS011;47165;42.664;23.368;2022-09-09T04:17:57;11.20;;;7.82;;
61291;SDS011;47165;42.664;23.368;2022-09-09T04:20:22;9.38;;;5.93;;
61291;SDS011;47165;42.664;23.368;2022-09-09T04:22:48;13.63;;;6.88;;
61291;SDS011;47165;42.664;23.368;2022-09-09T04:25:14;11.45;;;6.60;;
61291;SDS011;47165;42.664;23.368;2022-09-09T04:27:39;8.45;;;6.28;;
61291;SDS011;47165;42.664;23.368;2022-09-09T04:30:05;10.80;;;7.55;;
61291;SDS011;47165;42.664;23.368;2022-09-09T04:32:35;10.02;;;7.03;;
61291;SDS011;47165;42.664;23.368;2022-09-09T04:35:02;12.23;;;7.63;;
61291;SDS011;47165;42.664;23.368;2022-09-09T04:37:27;12.13;;;7.85;;
61291;SDS011;47165;42.664;23.368;2022-09-09T04:39:53;10.52;;;7.13;;
61291;SDS011;47165;42.664;23.368;2022-09-09T04:42:19;9.85;;;7.13;;
61291;SDS011;47165;42.664;23.368;2022-09-09T04:44:44;10.23;;;6.53;;
61291;SDS011;47165;42.664;23.368;2022-09-09T04:47:10;11.57;;;7.68;;
61291;SDS011;47165;42.664;23.368;2022-09-09T04:49:36;10.93;;;7.38;;
61291;SDS011;47165;42.664;23.368;2022-09-09T04:52:02;12.07;;;7.50;;
61291;SDS011;47165;42.664;23.368;2022-09-09T04:54:28;14.20;;;8.20;;
61291;SDS011;47165;42.664;23.368;2022-09-09T04:56:54;11.55;;;8.40;;
61291;SDS011;47165;42.664;23.368;2022-09-09T04:59:20;11.80;;;7.85;;
61291;SDS011;47165;42.664;23.368;2022-09-09T05:01:47;11.23;;;8.05;;
61291;SDS011;47165;42.664;23.368;2022-09-09T05:04:13;19.35;;;8.63;;
61291;SDS011;47165;42.664;23.368;2022-09-09T05:06:41;12.65;;;7.85;;
61291;SDS011;47165;42.664;23.368;2022-09-09T05:09:07;11.73;;;8.10;;
61291;SDS011;47165;42.664;23.368;2022-09-09T05:11:33;13.10;;;8.75;;
61291;SDS011;47165;42.664;23.368;2022-09-09T05:14:01;14.35;;;9.38;;
61291;SDS011;47165;42.664;23.368;2022-09-09T05:16:28;11.63;;;7.30;;
61291;SDS011;47165;42.664;23.368;2022-09-09T05:18:53;11.50;;;7.95;;
61291;SDS011;47165;42.664;23.368;2022-09-09T05:21:20;11.52;;;8.35;;
61291;SDS011;47165;42.664;23.368;2022-09-09T05:23:46;15.10;;;7.63;;
61291;SDS011;47165;42.664;23.368;2022-09-09T05:26:13;13.98;;;8.23;;
61291;SDS011;47165;42.664;23.368;2022-09-09T05:28:42;9.10;;;6.40;;
61291;SDS011;47165;42.664;23.368;2022-09-09T05:31:08;12.13;;;6.57;;
61291;SDS011;47165;42.664;23.368;2022-09-09T05:33:38;13.25;;;6.95;;
61291;SDS011;47165;42.664;23.368;2022-09-09T05:36:09;9.32;;;6.78;;
61291;SDS011;47165;42.664;23.368;2022-09-09T05:38:40;8.85;;;6.63;;
61291;SDS011;47165;42.664;23.368;2022-09-09T05:41:06;8.52;;;6.32;;
61291;SDS011;47165;42.664;23.368;2022-09-09T05:43:34;7.05;;;6.35;;
61291;SDS011;47165;42.664;23.368;2022-09-09T05:46:01;8.02;;;5.95;;
61291;SDS011;47165;42.664;23.368;2022-09-09T05:48:34;9.57;;;5.97;;
61291;SDS011;47165;42.664;23.368;2022-09-09T05:51:02;7.28;;;6.18;;
61291;SDS011;47165;42.664;23.368;2022-09-09T05:53:29;10.65;;;6.32;;
61291;SDS011;47165;42.664;23.368;2022-09-09T05:56:05;9.98;;;6.57;;
61291;SDS011;47165;42.664;23.368;2022-09-09T05:58:35;12.38;;;7.10;;
61291;SDS011;47165;42.664;23.368;2022-09-09T06:01:07;10.73;;;6.72;;
61291;SDS011;47165;42.664;23.368;2022-09-09T06:03:39;9.82;;;6.30;;
61291;SDS011;47165;42.664;23.368;2022-09-09T06:06:08;9.00;;;6.63;;
61291;SDS011;47165;42.664;23.368;2022-09-09T06:08:35;8.73;;;6.22;;
61291;SDS011;47165;42.664;23.368;2022-09-09T06:11:04;6.00;;;5.35;;
61291;SDS011;47165;42.664;23.368;2022-09-09T06:13:30;8.80;;;6.13;;
61291;SDS011;47165;42.664;23.368;2022-09-09T06:15:56;9.77;;;5.97;;
61291;SDS011;47165;42.664;23.368;2022-09-09T06:18:21;9.85;;;6.97;;
61291;SDS011;47165;42.664;23.368;2022-09-09T06:20:56;14.43;;;7.70;;
61291;SDS011;47165;42.664;23.368;2022-09-09T06:23:23;9.82;;;6.43;;
61291;SDS011;47165;42.664;23.368;2022-09-09T06:25:50;9.15;;;6.72;;
61291;SDS011;47165;42.664;23.368;2022-09-09T06:28:16;8.65;;;6.47;;
61291;SDS011;47165;42.664;23.368;2022-09-09T06:30:43;8.35;;;6.10;;
61291;SDS011;47165;42.664;23.368;2022-09-09T06:33:09;10.13;;;6.85;;
61291;SDS011;47165;42.664;23.368;2022-09-09T06:35:35;7.20;;;5.80;;
61291;SDS011;47165;42.664;23.368;2022-09-09T06:38:01;8.18;;;6.15;;
61291;SDS011;47165;42.664;23.368;2022-09-09T06:40:26;7.28;;;5.55;;
61291;SDS011;47165;42.664;23.368;2022-09-09T06:42:51;10.02;;;6.30;;
61291;SDS011;47165;42.664;23.368;2022-09-09T06:45:17;8.63;;;6.60;;
61291;SDS011;47165;42.664;23.368;2022-09-09T06:47:43;12.43;;;8.30;;
61291;SDS011;47165;42.664;23.368;2022-09-09T06:50:08;9.25;;;6.68;;
61291;SDS011;47165;42.664;23.368;2022-09-09T06:52:35;17.00;;;10.80;;
61291;SDS011;47165;42.664;23.368;2022-09-09T06:55:01;16.83;;;11.00;;
61291;SDS011;47165;42.664;23.368;2022-09-09T06:57:27;13.82;;;10.18;;
61291;SDS011;47165;42.664;23.368;2022-09-09T06:59:53;12.82;;;7.45;;
61291;SDS011;47165;42.664;23.368;2022-09-09T07:02:18;16.30;;;7.05;;
61291;SDS011;47165;42.664;23.368;2022-09-09T07:04:44;9.50;;;6.63;;
61291;SDS011;47165;42.664;23.368;2022-09-09T07:07:09;8.88;;;6.20;;
61291;SDS011;47165;42.664;23.368;2022-09-09T07:09:37;11.15;;;7.30;;
61291;SDS011;47165;42.664;23.368;2022-09-09T07:12:02;12.48;;;6.90;;
61291;SDS011;47165;42.664;23.368;2022-09-09T07:14:30;10.07;;;5.78;;
61291;SDS011;47165;42.664;23.368;2022-09-09T07:16:56;8.52;;;5.20;;
61291;SDS011;47165;42.664;23.368;2022-09-09T07:19:22;6.20;;;5.38;;
61291;SDS011;47165;42.664;23.368;2022-09-09T07:21:47;4.97;;;4.50;;
61291;SDS011;47165;42.664;23.368;2022-09-09T07:24:13;6.65;;;5.13;;
61291;SDS011;47165;42.664;23.368;2022-09-09T07:26:39;10.02;;;6.20;;
61291;SDS011;47165;42.664;23.368;2022-09-09T07:29:05;6.68;;;5.72;;
61291;SDS011;47165;42.664;23.368;2022-09-09T07:31:31;8.68;;;5.10;;
61291;SDS011;47165;42.664;23.368;2022-09-09T07:33:59;5.20;;;3.92;;
61291;SDS011;47165;42.664;23.368;2022-09-09T07:36:25;4.10;;;3.70;;
61291;SDS011;47165;42.664;23.368;2022-09-09T07:38:54;9.30;;;6.18;;
61291;SDS011;47165;42.664;23.368;2022-09-09T07:41:29;9.38;;;6.00;;
61291;SDS011;47165;42.664;23.368;2022-09-09T07:43:57;7.63;;;5.13;;
61291;SDS011;47165;42.664;23.368;2022-09-09T07:46:24;10.50;;;5.85;;
61291;SDS011;47165;42.664;23.368;2022-09-09T07:48:52;11.02;;;6.18;;
61291;SDS011;47165;42.664;23.368;2022-09-09T07:51:21;7.28;;;6.25;;
61291;SDS011;47165;42.664;23.368;2022-09-09T07:53:52;9.57;;;6.95;;
61291;SDS011;47165;42.664;23.368;2022-09-09T07:56:18;11.40;;;6.22;;
61291;SDS011;47165;42.664;23.368;2022-09-09T07:58:48;12.18;;;5.50;;
61291;SDS011;47165;42.664;23.368;2022-09-09T08:01:16;6.70;;;4.88;;
61291;SDS011;47165;42.664;23.368;2022-09-09T08:03:43;7.35;;;4.70;;
61291;SDS011;47165;42.664;23.368;2022-09-09T08:06:16;5.65;;;3.95;;
61291;SDS011;47165;42.664;23.368;2022-09-09T08:08:42;5.15;;;4.00;;
61291;SDS011;47165;42.664;23.368;2022-09-09T08:11:09;6.47;;;3.95;;
61291;SDS011;47165;42.664;23.368;2022-09-09T08:13:37;5.88;;;3.58;;
61291;SDS011;47165;42.664;23.368;2022-09-09T08:16:38;10.20;;;5.15;;
61291;SDS011;47165;42.664;23.368;2022-09-09T08:18:57;10.43;;;4.53;;
61291;SDS011;47165;42.664;23.368;2022-09-09T08:21:24;7.95;;;4.72;;
61291;SDS011;47165;42.664;23.368;2022-09-09T08:23:53;6.35;;;5.07;;
61291;SDS011;47165;42.664;23.368;2022-09-09T08:26:21;5.80;;;4.30;;
61291;SDS011;47165;42.664;23.368;2022-09-09T08:28:53;6.70;;;4.30;;
61291;SDS011;47165;42.664;23.368;2022-09-09T08:31:25;7.38;;;5.22;;
61291;SDS011;47165;42.664;23.368;2022-09-09T08:33:55;5.85;;;4.30;;
61291;SDS011;47165;42.664;23.368;2022-09-09T08:36:26;4.53;;;4.00;;
61291;SDS011;47165;42.664;23.368;2022-09-09T08:38:54;6.63;;;4.60;;
61291;SDS011;47165;42.664;23.368;2022-09-09T08:43:47;8.27;;;5.55;;
61291;SDS011;47165;42.664;23.368;2022-09-09T08:46:39;5.55;;;4.45;;
61291;SDS011;47165;42.664;23.368;2022-09-09T08:52:59;7.28;;;4.88;;
61291;SDS011;47165;42.664;23.368;2022-09-09T08:55:23;6.40;;;4.93;;
61291;SDS011;47165;42.664;23.368;2022-09-09T08:58:14;6.03;;;4.32;;
61291;SDS011;47165;42.664;23.368;2022-09-09T09:03:49;10.20;;;6.75;;
61291;SDS011;47165;42.664;23.368;2022-09-09T09:12:12;5.95;;;4.55;;
61291;SDS011;47165;42.664;23.368;2022-09-09T09:14:50;7.60;;;5.10;;
61291;SDS011;47165;42.664;23.368;2022-09-09T09:17:19;9.88;;;6.10;;
61291;SDS011;47165;42.664;23.368;2022-09-09T09:19:47;7.78;;;5.30;;
61291;SDS011;47165;42.664;23.368;2022-09-09T09:27:31;8.20;;;4.65;;
61291;SDS011;47165;42.664;23.368;2022-09-09T09:30:18;10.65;;;5.13;;
61291;SDS011;47165;42.664;23.368;2022-09-09T09:32:53;8.68;;;5.18;;
61291;SDS011;47165;42.664;23.368;2022-09-09T09:35:30;9.93;;;4.22;;
61291;SDS011;47165;42.664;23.368;2022-09-09T09:37:56;8.80;;;4.28;;
61291;SDS011;47165;42.664;23.368;2022-09-09T09:40:22;4.93;;;4.43;;
61291;SDS011;47165;42.664;23.368;2022-09-09T09:42:52;5.32;;;4.40;;
61291;SDS011;47165;42.664;23.368;2022-09-09T09:45:25;7.18;;;5.28;;
61291;SDS011;47165;42.664;23.368;2022-09-09T09:48:04;8.13;;;5.03;;
61291;SDS011;47165;42.664;23.368;2022-09-09T09:50:31;6.68;;;4.80;;
61291;SDS011;47165;42.664;23.368;2022-09-09T09:52:59;5.72;;;4.30;;
61291;SDS011;47165;42.664;23.368;2022-09-09T09:55:33;5.63;;;4.65;;
61291;SDS011;47165;42.664;23.368;2022-09-09T09:58:01;8.13;;;5.30;;
61291;SDS011;47165;42.664;23.368;2022-09-09T10:00:30;6.35;;;4.60;;
61291;SDS011;47165;42.664;23.368;2022-09-09T10:02:57;9.52;;;5.25;;
61291;SDS011;47165;42.664;23.368;2022-09-09T10:05:26;11.07;;;4.47;;
61291;SDS011;47165;42.664;23.368;2022-09-09T10:08:00;6.93;;;4.45;;
61291;SDS011;47165;42.664;23.368;2022-09-09T10:10:52;5.55;;;4.22;;
61291;SDS011;47165;42.664;23.368;2022-09-09T10:13:18;7.35;;;4.88;;
61291;SDS011;47165;42.664;23.368;2022-09-09T10:18:24;6.95;;;4.00;;
61291;SDS011;47165;42.664;23.368;2022-09-09T10:26:44;7.03;;;5.63;;
61291;SDS011;47165;42.664;23.368;2022-09-09T10:29:38;14.07;;;5.97;;
61291;SDS011;47165;42.664;23.368;2022-09-09T10:35:31;10.13;;;5.95;;
61291;SDS011;47165;42.664;23.368;2022-09-09T10:49:19;8.23;;;5.47;;
61291;SDS011;47165;42.664;23.368;2022-09-09T10:57:31;5.90;;;4.93;;
61291;SDS011;47165;42.664;23.368;2022-09-09T11:00:05;7.10;;;4.55;;
61291;SDS011;47165;42.664;23.368;2022-09-09T11:02:39;6.03;;;4.57;;
61291;SDS011;47165;42.664;23.368;2022-09-09T11:10:34;8.02;;;5.25;;
61291;SDS011;47165;42.664;23.368;2022-09-09T11:13:20;8.40;;;4.60;;
61291;SDS011;47165;42.664;23.368;2022-09-09T11:15:55;8.25;;;5.22;;
61291;SDS011;47165;42.664;23.368;2022-09-09T11:18:26;6.18;;;4.65;;
61291;SDS011;47165;42.664;23.368;2022-09-09T11:20:58;5.20;;;4.70;;
61291;SDS011;47165;42.664;23.368;2022-09-09T11:23:36;9.65;;;4.80;;
61291;SDS011;47165;42.664;23.368;2022-09-09T11:26:07;4.75;;;4.28;;
61291;SDS011;47165;42.664;23.368;2022-09-09T11:34:36;7.43;;;5.07;;
61291;SDS011;47165;42.664;23.368;2022-09-09T11:37:27;10.45;;;6.35;;
61291;SDS011;47165;42.664;23.368;2022-09-09T11:42:33;9.18;;;6.35;;
61291;SDS011;47165;42.664;23.368;2022-09-09T11:45:08;7.60;;;5.32;;
61291;SDS011;47165;42.664;23.368;2022-09-09T11:47:59;11.55;;;6.43;;
61291;SDS011;47165;42.664;23.368;2022-09-09T11:53:02;11.40;;;6.87;;
61291;SDS011;47165;42.664;23.368;2022-09-09T11:55:48;8.57;;;6.47;;
61291;SDS011;47165;42.664;23.368;2022-09-09T11:58:30;17.58;;;9.35;;
61291;SDS011;47165;42.664;23.368;2022-09-09T12:01:12;15.37;;;9.30;;
61291;SDS011;47165;42.664;23.368;2022-09-09T12:03:51;9.63;;;6.75;;
61291;SDS011;47165;42.664;23.368;2022-09-09T12:06:29;9.55;;;6.25;;
61291;SDS011;47165;42.664;23.368;2022-09-09T12:09:06;8.43;;;6.13;;
61291;SDS011;47165;42.664;23.368;2022-09-09T12:11:35;12.48;;;6.40;;
61291;SDS011;47165;42.664;23.368;2022-09-09T12:14:02;15.02;;;6.13;;
61291;SDS011;47165;42.664;23.368;2022-09-09T12:16:28;15.85;;;6.35;;
61291;SDS011;47165;42.664;23.368;2022-09-09T12:21:34;19.60;;;12.77;;
61291;SDS011;47165;42.664;23.368;2022-09-09T12:24:11;35.17;;;21.23;;
61291;SDS011;47165;42.664;23.368;2022-09-09T12:26:51;14.50;;;8.48;;
61291;SDS011;47165;42.664;23.368;2022-09-09T12:29:26;27.60;;;17.02;;
61291;SDS011;47165;42.664;23.368;2022-09-09T12:35:00;21.83;;;13.75;;
61291;SDS011;47165;42.664;23.368;2022-09-09T12:37:35;15.55;;;8.75;;
61291;SDS011;47165;42.664;23.368;2022-09-09T12:40:23;9.13;;;5.68;;
61291;SDS011;47165;42.664;23.368;2022-09-09T12:43:00;17.38;;;11.38;;
61291;SDS011;47165;42.664;23.368;2022-09-09T12:45:27;17.70;;;12.23;;
61291;SDS011;47165;42.664;23.368;2022-09-09T12:50:37;7.68;;;5.75;;
61291;SDS011;47165;42.664;23.368;2022-09-09T12:55:49;8.50;;;5.82;;
61291;SDS011;47165;42.664;23.368;2022-09-09T12:58:21;68.07;;;42.28;;
61291;SDS011;47165;42.664;23.368;2022-09-09T13:00:50;24.40;;;17.25;;
61291;SDS011;47165;42.664;23.368;2022-09-09T13:03:18;52.65;;;33.35;;
61291;SDS011;47165;42.664;23.368;2022-09-09T13:05:48;48.13;;;32.38;;
61291;SDS011;47165;42.664;23.368;2022-09-09T13:08:15;38.65;;;24.77;;
61291;SDS011;47165;42.664;23.368;2022-09-09T13:13:20;18.08;;;12.55;;
61291;SDS011;47165;42.664;23.368;2022-09-09T13:16:00;10.90;;;7.15;;
61291;SDS011;47165;42.664;23.368;2022-09-09T13:18:27;15.95;;;6.97;;
61291;SDS011;47165;42.664;23.368;2022-09-09T13:20:54;15.68;;;11.43;;
61291;SDS011;47165;42.664;23.368;2022-09-09T13:23:23;17.20;;;11.32;;
61291;SDS011;47165;42.664;23.368;2022-09-09T13:25:53;17.33;;;10.38;;
61291;SDS011;47165;42.664;23.368;2022-09-09T13:28:24;9.73;;;7.20;;
61291;SDS011;47165;42.664;23.368;2022-09-09T13:30:58;10.02;;;6.05;;
61291;SDS011;47165;42.664;23.368;2022-09-09T13:33:35;7.95;;;6.50;;
61291;SDS011;47165;42.664;23.368;2022-09-09T13:36:06;10.60;;;6.10;;
61291;SDS011;47165;42.664;23.368;2022-09-09T13:39:16;11.10;;;6.05;;
61291;SDS011;47165;42.664;23.368;2022-09-09T13:43:55;9.13;;;5.20;;
61291;SDS011;47165;42.664;23.368;2022-09-09T13:46:35;8.85;;;6.10;;
61291;SDS011;47165;42.664;23.368;2022-09-09T13:51:42;6.10;;;5.22;;
61291;SDS011;47165;42.664;23.368;2022-09-09T13:54:10;9.13;;;5.68;;
61291;SDS011;47165;42.664;23.368;2022-09-09T13:56:37;13.32;;;6.55;;
61291;SDS011;47165;42.664;23.368;2022-09-09T13:59:05;7.43;;;5.63;;
61291;SDS011;47165;42.664;23.368;2022-09-09T14:01:34;12.43;;;6.45;;
61291;SDS011;47165;42.664;23.368;2022-09-09T14:04:00;11.57;;;6.72;;
61291;SDS011;47165;42.664;23.368;2022-09-09T14:06:25;17.58;;;6.20;;
61291;SDS011;47165;42.664;23.368;2022-09-09T14:08:51;10.18;;;6.63;;
61291;SDS011;47165;42.664;23.368;2022-09-09T14:11:17;6.72;;;5.35;;
61291;SDS011;47165;42.664;23.368;2022-09-09T14:13:44;9.80;;;5.07;;
61291;SDS011;47165;42.664;23.368;2022-09-09T14:16:09;9.52;;;5.65;;
61291;SDS011;47165;42.664;23.368;2022-09-09T14:18:35;19.83;;;6.85;;
61291;SDS011;47165;42.664;23.368;2022-09-09T14:21:02;12.65;;;7.15;;
61291;SDS011;47165;42.664;23.368;2022-09-09T14:23:28;10.88;;;6.90;;
61291;SDS011;47165;42.664;23.368;2022-09-09T14:25:54;9.57;;;6.47;;
61291;SDS011;47165;42.664;23.368;2022-09-09T14:28:19;14.23;;;6.95;;
61291;SDS011;47165;42.664;23.368;2022-09-09T14:30:45;11.48;;;6.35;;
61291;SDS011;47165;42.664;23.368;2022-09-09T14:33:12;9.93;;;6.53;;
61291;SDS011;47165;42.664;23.368;2022-09-09T14:35:39;14.15;;;7.13;;
61291;SDS011;47165;42.664;23.368;2022-09-09T14:38:06;9.48;;;5.78;;
61291;SDS011;47165;42.664;23.368;2022-09-09T14:40:33;8.73;;;6.35;;
61291;SDS011;47165;42.664;23.368;2022-09-09T14:42:59;16.42;;;6.47;;
61291;SDS011;47165;42.664;23.368;2022-09-09T14:45:25;12.32;;;6.82;;
61291;SDS011;47165;42.664;23.368;2022-09-09T14:47:51;12.73;;;6.95;;
61291;SDS011;47165;42.664;23.368;2022-09-09T14:50:17;20.55;;;6.90;;
61291;SDS011;47165;42.664;23.368;2022-09-09T14:52:44;14.20;;;6.80;;
61291;SDS011;47165;42.664;23.368;2022-09-09T14:55:10;15.00;;;7.18;;
61291;SDS011;47165;42.664;23.368;2022-09-09T14:57:36;10.05;;;6.22;;
61291;SDS011;47165;42.664;23.368;2022-09-09T15:00:04;10.52;;;6.20;;
61291;SDS011;47165;42.664;23.368;2022-09-09T15:02:30;15.20;;;9.23;;
61291;SDS011;47165;42.664;23.368;2022-09-09T15:04:56;12.93;;;7.72;;
61291;SDS011;47165;42.664;23.368;2022-09-09T15:07:25;12.80;;;7.30;;
61291;SDS011;47165;42.664;23.368;2022-09-09T15:09:52;12.52;;;6.35;;
61291;SDS011;47165;42.664;23.368;2022-09-09T15:12:18;10.40;;;7.63;;
61291;SDS011;47165;42.664;23.368;2022-09-09T15:14:46;14.65;;;6.55;;
61291;SDS011;47165;42.664;23.368;2022-09-09T15:17:13;13.65;;;6.72;;
61291;SDS011;47165;42.664;23.368;2022-09-09T15:19:39;7.35;;;5.45;;
61291;SDS011;47165;42.664;23.368;2022-09-09T15:22:04;9.35;;;5.43;;
61291;SDS011;47165;42.664;23.368;2022-09-09T15:24:31;8.10;;;5.47;;
61291;SDS011;47165;42.664;23.368;2022-09-09T15:26:57;8.55;;;5.65;;
61291;SDS011;47165;42.664;23.368;2022-09-09T15:29:23;10.02;;;5.35;;
61291;SDS011;47165;42.664;23.368;2022-09-09T15:31:48;13.60;;;5.78;;
61291;SDS011;47165;42.664;23.368;2022-09-09T15:34:14;12.70;;;6.15;;
61291;SDS011;47165;42.664;23.368;2022-09-09T15:36:40;12.40;;;5.53;;
61291;SDS011;47165;42.664;23.368;2022-09-09T15:39:11;8.50;;;5.75;;
61291;SDS011;47165;42.664;23.368;2022-09-09T15:41:40;12.40;;;6.43;;
61291;SDS011;47165;42.664;23.368;2022-09-09T15:44:06;14.18;;;8.23;;
61291;SDS011;47165;42.664;23.368;2022-09-09T15:46:36;9.70;;;7.20;;
61291;SDS011;47165;42.664;23.368;2022-09-09T15:51:37;7.32;;;5.38;;
61291;SDS011;47165;42.664;23.368;2022-09-09T15:54:05;12.13;;;5.80;;
61291;SDS011;47165;42.664;23.368;2022-09-09T15:56:31;8.10;;;5.38;;
61291;SDS011;47165;42.664;23.368;2022-09-09T15:58:57;10.38;;;5.53;;
61291;SDS011;47165;42.664;23.368;2022-09-09T16:01:23;10.73;;;6.82;;
61291;SDS011;47165;42.664;23.368;2022-09-09T16:03:49;10.73;;;5.80;;
61291;SDS011;47165;42.664;23.368;2022-09-09T16:06:18;7.95;;;6.03;;
61291;SDS011;47165;42.664;23.368;2022-09-09T16:08:46;13.20;;;6.70;;
61291;SDS011;47165;42.664;23.368;2022-09-09T16:11:19;9.48;;;5.72;;
61291;SDS011;47165;42.664;23.368;2022-09-09T16:13:46;10.60;;;6.50;;
61291;SDS011;47165;42.664;23.368;2022-09-09T16:16:14;11.20;;;6.35;;
61291;SDS011;47165;42.664;23.368;2022-09-09T16:18:41;12.95;;;6.85;;
61291;SDS011;47165;42.664;23.368;2022-09-09T16:21:13;9.90;;;6.45;;
61291;SDS011;47165;42.664;23.368;2022-09-09T16:23:44;8.85;;;6.18;;
61291;SDS011;47165;42.664;23.368;2022-09-09T16:26:13;10.40;;;6.75;;
61291;SDS011;47165;42.664;23.368;2022-09-09T16:28:40;12.60;;;6.93;;
61291;SDS011;47165;42.664;23.368;2022-09-09T16:31:10;10.05;;;6.07;;
61291;SDS011;47165;42.664;23.368;2022-09-09T16:33:39;13.07;;;7.63;;
61291;SDS011;47165;42.664;23.368;2022-09-09T16:36:12;11.35;;;6.70;;
61291;SDS011;47165;42.664;23.368;2022-09-09T16:41:04;13.35;;;6.40;;
61291;SDS011;47165;42.664;23.368;2022-09-09T16:43:31;9.35;;;7.00;;
61291;SDS011;47165;42.664;23.368;2022-09-09T16:45:59;10.85;;;6.80;;
61291;SDS011;47165;42.664;23.368;2022-09-09T16:48:31;13.75;;;8.15;;
61291;SDS011;47165;42.664;23.368;2022-09-09T16:51:04;10.43;;;6.85;;
61291;SDS011;47165;42.664;23.368;2022-09-09T16:55:57;17.70;;;6.78;;